sensor_id;sensor_type;location;lat;lon;timestamp;pressure;altitude;pressure_sealevel;temperature;humidity
69772;BME280;57046;45.988;18.664;2023-02-11T00:00:20;102902.78;;;-2.97;69.78
69772;BME280;57046;45.988;18.664;2023-02-11T00:02:45;102890.91;;;-3.10;69.60
69772;BME280;57046;45.988;18.664;2023-02-11T00:05:11;102900.34;;;-3.07;70.50
69772;BME280;57046;45.988;18.664;2023-02-11T00:07:36;102913.69;;;-3.00;69.88
69772;BME280;57046;45.988;18.664;2023-02-11T00:10:03;102911.41;;;-3.03;70.07
69772;BME280;57046;45.988;18.664;2023-02-11T00:12:29;102908.09;;;-3.05;70.00
69772;BME280;57046;45.988;18.664;2023-02-11T00:14:54;102910.91;;;-3.07;70.09
69772;BME280;57046;45.988;18.664;2023-02-11T00:17:20;102917.34;;;-3.10;70.54
69772;BME280;57046;45.988;18.664;2023-02-11T00:19:49;102878.91;;;-3.28;70.82
69772;BME280;57046;45.988;18.664;2023-02-11T00:22:14;102902.16;;;-3.16;71.48
69772;BME280;57046;45.988;18.664;2023-02-11T00:24:40;102896.56;;;-3.21;72.15
69772;BME280;57046;45.988;18.664;2023-02-11T00:27:05;102898.03;;;-3.18;71.68
69772;BME280;57046;45.988;18.664;2023-02-11T00:29:30;102900.03;;;-3.20;72.29
69772;BME280;57046;45.988;18.664;2023-02-11T00:31:56;102891.28;;;-3.21;72.29
69772;BME280;57046;45.988;18.664;2023-02-11T00:34:21;102901.19;;;-3.23;72.34
69772;BME280;57046;45.988;18.664;2023-02-11T00:36:46;102893.59;;;-3.18;71.85
69772;BME280;57046;45.988;18.664;2023-02-11T00:39:11;102891.63;;;-3.24;72.32
69772;BME280;57046;45.988;18.664;2023-02-11T00:41:37;102888.31;;;-3.26;72.72
69772;BME280;57046;45.988;18.664;2023-02-11T00:44:02;102891.78;;;-3.25;73.03
69772;BME280;57046;45.988;18.664;2023-02-11T00:46:28;102892.94;;;-3.28;73.34
69772;BME280;57046;45.988;18.664;2023-02-11T00:48:53;102893.44;;;-3.24;73.67
69772;BME280;57046;45.988;18.664;2023-02-11T00:51:19;102893.44;;;-3.24;73.49
69772;BME280;57046;45.988;18.664;2023-02-11T00:53:44;102887.66;;;-3.28;73.64
69772;BME280;57046;45.988;18.664;2023-02-11T00:56:10;102893.75;;;-3.19;72.90
69772;BME280;57046;45.988;18.664;2023-02-11T00:58:36;102889.47;;;-3.20;72.72
69772;BME280;57046;45.988;18.664;2023-02-11T01:01:02;102894.75;;;-3.20;72.82
69772;BME280;57046;45.988;18.664;2023-02-11T01:03:27;102887.03;;;-3.38;74.39
69772;BME280;57046;45.988;18.664;2023-02-11T01:05:53;102872.34;;;-3.40;74.09
69772;BME280;57046;45.988;18.664;2023-02-11T01:08:19;102874.28;;;-3.34;74.52
69772;BME280;57046;45.988;18.664;2023-02-11T01:10:44;102875.28;;;-3.35;74.46
69772;BME280;57046;45.988;18.664;2023-02-11T01:13:10;102872.81;;;-3.37;75.08
69772;BME280;57046;45.988;18.664;2023-02-11T01:15:35;102868.19;;;-3.35;75.04
69772;BME280;57046;45.988;18.664;2023-02-11T01:18:00;102864.91;;;-3.37;74.78
69772;BME280;57046;45.988;18.664;2023-02-11T01:20:27;102826.28;;;-3.54;74.91
69772;BME280;57046;45.988;18.664;2023-02-11T01:22:53;102863.88;;;-3.36;74.89
69772;BME280;57046;45.988;18.664;2023-02-11T01:25:18;102863.25;;;-3.38;74.47
69772;BME280;57046;45.988;18.664;2023-02-11T01:27:44;102849.84;;;-3.36;74.53
69772;BME280;57046;45.988;18.664;2023-02-11T01:30:13;102810.59;;;-3.64;74.26
69772;BME280;57046;45.988;18.664;2023-02-11T01:32:39;102854.97;;;-3.27;73.88
69772;BME280;57046;45.988;18.664;2023-02-11T01:35:05;102858.88;;;-3.23;73.42
69772;BME280;57046;45.988;18.664;2023-02-11T01:37:33;102840.09;;;-3.28;72.61
69772;BME280;57046;45.988;18.664;2023-02-11T01:40:01;102837.59;;;-3.29;72.90
69772;BME280;57046;45.988;18.664;2023-02-11T01:42:26;102844.69;;;-3.22;73.27
69772;BME280;57046;45.988;18.664;2023-02-11T01:44:53;102840.91;;;-3.27;73.19
69772;BME280;57046;45.988;18.664;2023-02-11T01:47:20;102828.53;;;-3.35;73.44
69772;BME280;57046;45.988;18.664;2023-02-11T01:49:59;102805.78;;;-3.44;72.76
69772;BME280;57046;45.988;18.664;2023-02-11T01:52:29;102833.63;;;-3.25;73.09
69772;BME280;57046;45.988;18.664;2023-02-11T01:54:59;102849.97;;;-3.30;72.92
69772;BME280;57046;45.988;18.664;2023-02-11T01:57:28;102829.53;;;-3.36;73.63
69772;BME280;57046;45.988;18.664;2023-02-11T02:00:18;102826.72;;;-3.34;73.75
69772;BME280;57046;45.988;18.664;2023-02-11T02:05:50;102812.03;;;-3.37;73.60
69772;BME280;57046;45.988;18.664;2023-02-11T02:10:56;102792.53;;;-3.36;73.79
69772;BME280;57046;45.988;18.664;2023-02-11T02:13:22;102802.13;;;-3.43;74.22
69772;BME280;57046;45.988;18.664;2023-02-11T02:15:53;102773.75;;;-3.49;74.37
69772;BME280;57046;45.988;18.664;2023-02-11T02:18:26;102791.75;;;-3.61;75.11
69772;BME280;57046;45.988;18.664;2023-02-11T02:21:30;102783.53;;;-3.57;75.17
69772;BME280;57046;45.988;18.664;2023-02-11T02:24:12;102776.88;;;-3.53;75.61
69772;BME280;57046;45.988;18.664;2023-02-11T02:35:26;102774.09;;;-3.44;74.43
69772;BME280;57046;45.988;18.664;2023-02-11T02:38:06;102772.41;;;-3.45;74.86
69772;BME280;57046;45.988;18.664;2023-02-11T02:40:37;102770.75;;;-3.46;74.83
69772;BME280;57046;45.988;18.664;2023-02-11T02:43:06;102740.78;;;-3.69;74.64
69772;BME280;57046;45.988;18.664;2023-02-11T02:45:33;102778.91;;;-3.55;75.10
69772;BME280;57046;45.988;18.664;2023-02-11T02:47:58;102772.78;;;-3.48;75.78
69772;BME280;57046;45.988;18.664;2023-02-11T02:50:30;102773.41;;;-3.46;75.17
69772;BME280;57046;45.988;18.664;2023-02-11T03:01:44;102764.16;;;-3.42;75.10
69772;BME280;57046;45.988;18.664;2023-02-11T03:04:21;102774.25;;;-3.45;75.09
69772;BME280;57046;45.988;18.664;2023-02-11T03:06:56;102759.06;;;-3.51;74.94
69772;BME280;57046;45.988;18.664;2023-02-11T03:09:35;102761.19;;;-3.47;74.67
69772;BME280;57046;45.988;18.664;2023-02-11T03:12:03;102752.97;;;-3.52;74.01
69772;BME280;57046;45.988;18.664;2023-02-11T03:14:31;102753.78;;;-3.51;74.85
69772;BME280;57046;45.988;18.664;2023-02-11T03:17:00;102716.03;;;-3.68;73.89
69772;BME280;57046;45.988;18.664;2023-02-11T03:19:33;102706.66;;;-3.79;74.20
69772;BME280;57046;45.988;18.664;2023-02-11T03:22:02;102743.56;;;-3.54;75.27
69772;BME280;57046;45.988;18.664;2023-02-11T03:24:34;102718.06;;;-3.78;75.62
69772;BME280;57046;45.988;18.664;2023-02-11T03:27:51;102751.69;;;-3.64;76.12
69772;BME280;57046;45.988;18.664;2023-02-11T03:32:44;102725.16;;;-3.79;75.55
69772;BME280;57046;45.988;18.664;2023-02-11T03:35:15;102752.97;;;-3.60;76.12
69772;BME280;57046;45.988;18.664;2023-02-11T03:40:20;102753.25;;;-3.39;74.94
69772;BME280;57046;45.988;18.664;2023-02-11T03:42:57;102753.59;;;-3.42;74.83
69772;BME280;57046;45.988;18.664;2023-02-11T03:45:24;102742.88;;;-3.48;74.44
69772;BME280;57046;45.988;18.664;2023-02-11T03:48:03;102766.44;;;-3.39;74.63
69772;BME280;57046;45.988;18.664;2023-02-11T03:50:32;102716.06;;;-3.84;74.93
69772;BME280;57046;45.988;18.664;2023-02-11T03:53:00;102723.69;;;-3.81;75.68
69772;BME280;57046;45.988;18.664;2023-02-11T03:55:27;102755.81;;;-3.62;75.43
69772;BME280;57046;45.988;18.664;2023-02-11T03:57:54;102762.06;;;-3.63;75.44
69772;BME280;57046;45.988;18.664;2023-02-11T04:00:19;102761.72;;;-3.60;74.93
69772;BME280;57046;45.988;18.664;2023-02-11T04:02:44;102762.06;;;-3.63;75.47
69772;BME280;57046;45.988;18.664;2023-02-11T04:05:13;102721.19;;;-3.83;75.51
69772;BME280;57046;45.988;18.664;2023-02-11T04:07:39;102752.63;;;-3.49;74.85
69772;BME280;57046;45.988;18.664;2023-02-11T04:10:05;102755.44;;;-3.50;75.00
69772;BME280;57046;45.988;18.664;2023-02-11T04:12:30;102747.84;;;-3.53;74.63
69772;BME280;57046;45.988;18.664;2023-02-11T04:14:55;102745.69;;;-3.50;74.28
69772;BME280;57046;45.988;18.664;2023-02-11T04:17:21;102743.09;;;-3.58;74.54
69772;BME280;57046;45.988;18.664;2023-02-11T04:19:46;102748.38;;;-3.58;74.71
69772;BME280;57046;45.988;18.664;2023-02-11T04:22:12;102736.34;;;-3.69;74.82
69772;BME280;57046;45.988;18.664;2023-02-11T04:24:37;102739.13;;;-3.62;74.86
69772;BME280;57046;45.988;18.664;2023-02-11T04:27:03;102736.63;;;-3.55;73.97
69772;BME280;57046;45.988;18.664;2023-02-11T04:29:28;102725.28;;;-3.72;74.25
69772;BME280;57046;45.988;18.664;2023-02-11T04:31:54;102727.59;;;-3.69;74.48
69772;BME280;57046;45.988;18.664;2023-02-11T04:34:20;102728.28;;;-3.75;74.23
69772;BME280;57046;45.988;18.664;2023-02-11T04:36:46;102732.72;;;-3.68;74.18
69772;BME280;57046;45.988;18.664;2023-02-11T04:39:11;102732.53;;;-3.74;74.43
69772;BME280;57046;45.988;18.664;2023-02-11T04:41:37;102734.88;;;-3.79;74.67
69772;BME280;57046;45.988;18.664;2023-02-11T04:44:02;102727.94;;;-3.80;74.54
69772;BME280;57046;45.988;18.664;2023-02-11T04:46:28;102728.44;;;-3.77;75.23
69772;BME280;57046;45.988;18.664;2023-02-11T04:48:53;102727.94;;;-3.80;74.84
69772;BME280;57046;45.988;18.664;2023-02-11T04:51:19;102723.00;;;-3.83;75.19
69772;BME280;57046;45.988;18.664;2023-02-11T04:53:44;102721.84;;;-3.81;74.65
69772;BME280;57046;45.988;18.664;2023-02-11T04:56:09;102726.63;;;-3.84;74.66
69772;BME280;57046;45.988;18.664;2023-02-11T04:58:35;102728.28;;;-3.83;74.44
69772;BME280;57046;45.988;18.664;2023-02-11T05:01:11;102720.06;;;-3.88;74.01
69772;BME280;57046;45.988;18.664;2023-02-11T05:03:37;102720.22;;;-3.90;74.15
69772;BME280;57046;45.988;18.664;2023-02-11T05:06:03;102674.91;;;-4.18;74.73
69772;BME280;57046;45.988;18.664;2023-02-11T05:08:29;102712.31;;;-3.98;74.76
69772;BME280;57046;45.988;18.664;2023-02-11T05:10:54;102707.84;;;-3.97;75.14
69772;BME280;57046;45.988;18.664;2023-02-11T05:13:21;102707.03;;;-3.98;75.04
69772;BME280;57046;45.988;18.664;2023-02-11T05:15:47;102703.41;;;-3.97;74.98
69772;BME280;57046;45.988;18.664;2023-02-11T05:18:12;102710.53;;;-4.05;75.57
69772;BME280;57046;45.988;18.664;2023-02-11T05:20:38;102716.28;;;-4.02;75.45
69772;BME280;57046;45.988;18.664;2023-02-11T05:23:03;102705.22;;;-3.97;75.41
69772;BME280;57046;45.988;18.664;2023-02-11T05:25:28;102700.94;;;-4.06;75.46
69772;BME280;57046;45.988;18.664;2023-02-11T05:27:54;102696.50;;;-4.06;75.00
69772;BME280;57046;45.988;18.664;2023-02-11T05:30:19;102697.66;;;-4.08;75.87
69772;BME280;57046;45.988;18.664;2023-02-11T05:32:45;102700.94;;;-4.06;75.07
69772;BME280;57046;45.988;18.664;2023-02-11T05:35:10;102703.75;;;-4.00;74.92
69772;BME280;57046;45.988;18.664;2023-02-11T05:37:35;102697.31;;;-4.05;75.42
69772;BME280;57046;45.988;18.664;2023-02-11T05:40:01;102697.66;;;-4.08;75.22
69772;BME280;57046;45.988;18.664;2023-02-11T05:42:26;102698.47;;;-4.08;75.74
69772;BME280;57046;45.988;18.664;2023-02-11T05:44:51;102692.19;;;-4.07;76.08
69772;BME280;57046;45.988;18.664;2023-02-11T05:47:17;102683.97;;;-4.12;77.19
69772;BME280;57046;45.988;18.664;2023-02-11T05:49:42;102687.09;;;-4.08;76.60
69772;BME280;57046;45.988;18.664;2023-02-11T05:52:07;102687.41;;;-4.03;76.24
69772;BME280;57046;45.988;18.664;2023-02-11T05:54:33;102688.88;;;-4.01;76.25
69772;BME280;57046;45.988;18.664;2023-02-11T05:56:58;102687.00;;;-3.76;82.63
69772;BME280;57046;45.988;18.664;2023-02-11T05:59:23;102689.22;;;-3.88;77.91
69772;BME280;57046;45.988;18.664;2023-02-11T06:01:49;102694.16;;;-3.93;77.49
69772;BME280;57046;45.988;18.664;2023-02-11T06:04:14;102690.69;;;-3.93;76.40
69772;BME280;57046;45.988;18.664;2023-02-11T06:06:39;102696.31;;;-3.96;77.05
69772;BME280;57046;45.988;18.664;2023-02-11T06:09:05;102694.16;;;-3.93;76.77
69772;BME280;57046;45.988;18.664;2023-02-11T06:11:30;102692.00;;;-3.97;77.47
69772;BME280;57046;45.988;18.664;2023-02-11T06:13:56;102689.69;;;-3.92;76.97
69772;BME280;57046;45.988;18.664;2023-02-11T06:16:21;102691.16;;;-3.90;76.75
69772;BME280;57046;45.988;18.664;2023-02-11T06:18:46;102696.94;;;-3.86;76.76
69772;BME280;57046;45.988;18.664;2023-02-11T06:21:12;102696.28;;;-3.88;77.25
69772;BME280;57046;45.988;18.664;2023-02-11T06:23:37;102683.09;;;-3.88;77.27
69772;BME280;57046;45.988;18.664;2023-02-11T06:26:05;102690.00;;;-3.87;77.65
69772;BME280;57046;45.988;18.664;2023-02-11T06:28:31;102690.97;;;-3.80;77.80
69772;BME280;57046;45.988;18.664;2023-02-11T06:30:57;102687.41;;;-3.95;79.13
69772;BME280;57046;45.988;18.664;2023-02-11T06:33:23;102700.72;;;-3.81;79.27
69772;BME280;57046;45.988;18.664;2023-02-11T06:35:48;102697.91;;;-3.87;80.38
69772;BME280;57046;45.988;18.664;2023-02-11T06:38:14;102699.22;;;-3.75;79.69
69772;BME280;57046;45.988;18.664;2023-02-11T06:40:39;102706.81;;;-3.80;80.76
69772;BME280;57046;45.988;18.664;2023-02-11T06:43:05;102705.00;;;-3.72;80.44
69772;BME280;57046;45.988;18.664;2023-02-11T06:45:30;102704.31;;;-3.66;81.28
69772;BME280;57046;45.988;18.664;2023-02-11T06:47:55;102708.34;;;-3.47;81.75
69772;BME280;57046;45.988;18.664;2023-02-11T06:50:21;102695.63;;;-3.43;81.88
69772;BME280;57046;45.988;18.664;2023-02-11T06:52:46;102691.97;;;-3.34;81.79
69772;BME280;57046;45.988;18.664;2023-02-11T06:55:12;102690.41;;;-3.21;81.88
69772;BME280;57046;45.988;18.664;2023-02-11T06:57:37;102687.88;;;-3.14;81.66
69772;BME280;57046;45.988;18.664;2023-02-11T07:00:03;102690.47;;;-3.06;81.98
69772;BME280;57046;45.988;18.664;2023-02-11T07:02:29;102685.84;;;-3.04;84.39
69772;BME280;57046;45.988;18.664;2023-02-11T07:04:54;102692.19;;;-2.90;84.14
69772;BME280;57046;45.988;18.664;2023-02-11T07:07:20;102692.13;;;-2.82;85.09
69772;BME280;57046;45.988;18.664;2023-02-11T07:09:45;102686.06;;;-2.68;84.72
69772;BME280;57046;45.988;18.664;2023-02-11T07:12:10;102697.06;;;-2.57;85.23
69772;BME280;57046;45.988;18.664;2023-02-11T07:14:36;102691.53;;;-2.47;85.30
69772;BME280;57046;45.988;18.664;2023-02-11T07:17:01;102697.22;;;-2.35;85.57
69772;BME280;57046;45.988;18.664;2023-02-11T07:19:26;102689.38;;;-2.29;86.15
69772;BME280;57046;45.988;18.664;2023-02-11T07:21:52;102691.88;;;-2.13;85.66
69772;BME280;57046;45.988;18.664;2023-02-11T07:24:18;102687.97;;;-2.02;85.60
69772;BME280;57046;45.988;18.664;2023-02-11T07:26:43;102691.78;;;-1.90;85.73
69772;BME280;57046;45.988;18.664;2023-02-11T07:29:09;102687.13;;;-1.73;85.43
69772;BME280;57046;45.988;18.664;2023-02-11T07:31:34;102695.28;;;-1.60;85.76
69772;BME280;57046;45.988;18.664;2023-02-11T07:34:00;102686.22;;;-1.51;85.88
69772;BME280;57046;45.988;18.664;2023-02-11T07:36:28;102681.22;;;-1.39;86.40
69772;BME280;57046;45.988;18.664;2023-02-11T07:38:54;102675.28;;;-1.27;86.14
69772;BME280;57046;45.988;18.664;2023-02-11T07:41:21;102655.28;;;-1.29;85.63
69772;BME280;57046;45.988;18.664;2023-02-11T07:43:47;102685.66;;;-1.11;86.08
69772;BME280;57046;45.988;18.664;2023-02-11T07:46:16;102681.69;;;-1.00;86.24
69772;BME280;57046;45.988;18.664;2023-02-11T07:48:42;102686.91;;;-0.92;86.79
69772;BME280;57046;45.988;18.664;2023-02-11T07:53:34;102684.28;;;-0.64;84.98
69772;BME280;57046;45.988;18.664;2023-02-11T07:55:59;102685.88;;;-0.48;84.13
69772;BME280;57046;45.988;18.664;2023-02-11T07:58:24;102679.78;;;-0.42;84.10
69772;BME280;57046;45.988;18.664;2023-02-11T08:00:50;102683.94;;;-0.33;83.17
69772;BME280;57046;45.988;18.664;2023-02-11T08:03:15;102674.88;;;-0.18;82.72
69772;BME280;57046;45.988;18.664;2023-02-11T08:05:40;102676.78;;;-0.05;82.86
69772;BME280;57046;45.988;18.664;2023-02-11T08:08:06;102677.88;;;0.07;81.83
69772;BME280;57046;45.988;18.664;2023-02-11T08:10:31;102675.34;;;0.27;81.16
69772;BME280;57046;45.988;18.664;2023-02-11T08:12:57;102686.44;;;0.37;80.21
69772;BME280;57046;45.988;18.664;2023-02-11T08:15:22;102678.72;;;0.48;80.71
69772;BME280;57046;45.988;18.664;2023-02-11T08:17:47;102665.25;;;0.57;80.05
69772;BME280;57046;45.988;18.664;2023-02-11T08:20:13;102673.88;;;0.72;79.22
69772;BME280;57046;45.988;18.664;2023-02-11T08:22:38;102671.91;;;0.87;78.12
69772;BME280;57046;45.988;18.664;2023-02-11T08:25:04;102671.94;;;1.00;77.55
69772;BME280;57046;45.988;18.664;2023-02-11T08:27:30;102671.94;;;1.07;78.72
69772;BME280;57046;45.988;18.664;2023-02-11T08:29:55;102658.47;;;1.34;77.93
69772;BME280;57046;45.988;18.664;2023-02-11T08:32:21;102660.72;;;1.44;76.85
69772;BME280;57046;45.988;18.664;2023-02-11T08:34:50;102659.50;;;1.60;76.25
69772;BME280;57046;45.988;18.664;2023-02-11T08:37:15;102659.28;;;1.74;75.51
69772;BME280;57046;45.988;18.664;2023-02-11T08:39:41;102661.50;;;1.84;74.23
69772;BME280;57046;45.988;18.664;2023-02-11T08:42:06;102655.53;;;2.01;74.55
69772;BME280;57046;45.988;18.664;2023-02-11T08:44:31;102661.25;;;2.12;72.95
69772;BME280;57046;45.988;18.664;2023-02-11T08:46:57;102657.38;;;2.14;72.29
69772;BME280;57046;45.988;18.664;2023-02-11T08:49:22;102662.06;;;2.19;71.45
69772;BME280;57046;45.988;18.664;2023-02-11T08:51:48;102660.41;;;2.24;70.84
69772;BME280;57046;45.988;18.664;2023-02-11T08:54:14;102652.75;;;2.41;69.61
69772;BME280;57046;45.988;18.664;2023-02-11T08:56:39;102656.66;;;2.45;69.26
69772;BME280;57046;45.988;18.664;2023-02-11T08:59:05;102663.19;;;2.49;69.17
69772;BME280;57046;45.988;18.664;2023-02-11T09:01:32;102660.47;;;2.55;69.54
69772;BME280;57046;45.988;18.664;2023-02-11T09:03:58;102659.00;;;2.66;69.15
69772;BME280;57046;45.988;18.664;2023-02-11T09:06:24;102662.03;;;2.76;67.49
69772;BME280;57046;45.988;18.664;2023-02-11T09:08:52;102634.75;;;2.74;66.79
69772;BME280;57046;45.988;18.664;2023-02-11T09:11:20;102670.75;;;2.96;66.79
69772;BME280;57046;45.988;18.664;2023-02-11T09:13:46;102662.28;;;3.06;67.24
69772;BME280;57046;45.988;18.664;2023-02-11T09:16:26;102625.09;;;3.04;66.99
69772;BME280;57046;45.988;18.664;2023-02-11T09:18:53;102644.72;;;3.23;66.74
69772;BME280;57046;45.988;18.664;2023-02-11T09:21:20;102650.16;;;3.35;66.10
69772;BME280;57046;45.988;18.664;2023-02-11T09:23:45;102649.91;;;3.43;65.71
69772;BME280;57046;45.988;18.664;2023-02-11T09:26:16;102641.38;;;3.52;65.63
69772;BME280;57046;45.988;18.664;2023-02-11T09:28:42;102650.25;;;3.71;64.40
69772;BME280;57046;45.988;18.664;2023-02-11T09:31:09;102636.81;;;3.78;62.93
69772;BME280;57046;45.988;18.664;2023-02-11T09:33:36;102640.13;;;3.98;61.54
69772;BME280;57046;45.988;18.664;2023-02-11T09:36:03;102630.09;;;4.12;62.57
69772;BME280;57046;45.988;18.664;2023-02-11T09:38:29;102632.38;;;4.26;62.34
69772;BME280;57046;45.988;18.664;2023-02-11T09:40:54;102626.56;;;4.47;59.76
69772;BME280;57046;45.988;18.664;2023-02-11T09:43:22;102630.38;;;4.70;59.53
69772;BME280;57046;45.988;18.664;2023-02-11T09:45:49;102618.72;;;4.94;58.12
69772;BME280;57046;45.988;18.664;2023-02-11T09:48:19;102622.03;;;5.19;57.50
69772;BME280;57046;45.988;18.664;2023-02-11T09:50:50;102629.75;;;5.27;56.08
69772;BME280;57046;45.988;18.664;2023-02-11T09:53:24;102631.25;;;5.35;55.00
69772;BME280;57046;45.988;18.664;2023-02-11T09:55:55;102628.84;;;5.33;54.09
69772;BME280;57046;45.988;18.664;2023-02-11T09:58:35;102607.97;;;5.35;53.87
69772;BME280;57046;45.988;18.664;2023-02-11T10:06:30;102614.53;;;5.51;53.79
69772;BME280;57046;45.988;18.664;2023-02-11T10:22:26;102591.75;;;5.77;55.16
69772;BME280;57046;45.988;18.664;2023-02-11T10:24:54;102580.69;;;5.85;54.55
69772;BME280;57046;45.988;18.664;2023-02-11T10:27:25;102581.56;;;6.13;54.33
69772;BME280;57046;45.988;18.664;2023-02-11T10:29:59;102575.06;;;6.38;53.87
69772;BME280;57046;45.988;18.664;2023-02-11T10:32:38;102567.47;;;6.46;52.06
69772;BME280;57046;45.988;18.664;2023-02-11T10:35:17;102557.66;;;6.40;51.72
69772;BME280;57046;45.988;18.664;2023-02-11T10:37:43;102563.72;;;6.47;51.46
69772;BME280;57046;45.988;18.664;2023-02-11T10:40:14;102570.38;;;6.45;50.90
69772;BME280;57046;45.988;18.664;2023-02-11T10:42:43;102532.31;;;6.48;51.42
69772;BME280;57046;45.988;18.664;2023-02-11T10:45:21;102560.28;;;6.80;49.81
69772;BME280;57046;45.988;18.664;2023-02-11T10:47:47;102549.22;;;6.93;49.66
69772;BME280;57046;45.988;18.664;2023-02-11T10:50:28;102549.88;;;7.00;49.27
69772;BME280;57046;45.988;18.664;2023-02-11T10:53:14;102540.34;;;6.93;48.70
69772;BME280;57046;45.988;18.664;2023-02-11T10:55:52;102528.53;;;6.94;48.29
69772;BME280;57046;45.988;18.664;2023-02-11T10:58:30;102535.94;;;7.03;48.42
69772;BME280;57046;45.988;18.664;2023-02-11T11:00:58;102531.22;;;7.10;47.51
69772;BME280;57046;45.988;18.664;2023-02-11T11:03:26;102540.75;;;7.35;46.92
69772;BME280;57046;45.988;18.664;2023-02-11T11:06:05;102531.31;;;7.54;46.66
69772;BME280;57046;45.988;18.664;2023-02-11T11:08:42;102508.63;;;7.66;45.41
69772;BME280;57046;45.988;18.664;2023-02-11T11:11:26;102503.94;;;7.57;45.11
69772;BME280;57046;45.988;18.664;2023-02-11T11:16:29;102498.97;;;7.49;44.11
69772;BME280;57046;45.988;18.664;2023-02-11T11:21:43;102487.09;;;7.88;43.68
69772;BME280;57046;45.988;18.664;2023-02-11T11:24:28;102488.78;;;7.94;43.69
69772;BME280;57046;45.988;18.664;2023-02-11T11:26:58;102486.31;;;8.14;43.45
69772;BME280;57046;45.988;18.664;2023-02-11T11:29:37;102490.69;;;8.20;42.62
69772;BME280;57046;45.988;18.664;2023-02-11T11:32:19;102482.09;;;8.24;41.98
69772;BME280;57046;45.988;18.664;2023-02-11T11:34:52;102491.91;;;8.30;41.94
69772;BME280;57046;45.988;18.664;2023-02-11T11:37:28;102469.44;;;8.24;41.67
69772;BME280;57046;45.988;18.664;2023-02-11T11:39:58;102463.88;;;8.31;41.76
69772;BME280;57046;45.988;18.664;2023-02-11T11:42:34;102466.88;;;8.34;40.90
69772;BME280;57046;45.988;18.664;2023-02-11T11:45:17;102457.97;;;8.34;42.10
69772;BME280;57046;45.988;18.664;2023-02-11T11:50:41;102422.94;;;8.07;42.79
69772;BME280;57046;45.988;18.664;2023-02-11T11:56:17;102442.81;;;8.28;41.69
69772;BME280;57046;45.988;18.664;2023-02-11T11:58:44;102447.25;;;8.39;41.97
69772;BME280;57046;45.988;18.664;2023-02-11T12:06:56;102444.78;;;8.32;41.50
69772;BME280;57046;45.988;18.664;2023-02-11T12:35:18;102406.34;;;8.15;42.27
69772;BME280;57046;45.988;18.664;2023-02-11T12:40:43;102386.47;;;8.21;41.48
69772;BME280;57046;45.988;18.664;2023-02-11T12:43:27;102396.63;;;8.41;40.81
69772;BME280;57046;45.988;18.664;2023-02-11T12:48:49;102395.63;;;8.47;42.29
69772;BME280;57046;45.988;18.664;2023-02-11T12:51:38;102386.81;;;9.08;73.91
69772;BME280;57046;45.988;18.664;2023-02-11T12:54:28;102378.97;;;8.97;42.07
69772;BME280;57046;45.988;18.664;2023-02-11T12:57:17;102375.22;;;8.61;42.06
69772;BME280;57046;45.988;18.664;2023-02-11T13:02:48;102377.53;;;8.47;43.30
69772;BME280;57046;45.988;18.664;2023-02-11T13:08:04;102375.28;;;8.34;43.73
69772;BME280;57046;45.988;18.664;2023-02-11T13:10:36;102376.47;;;8.48;43.15
69772;BME280;57046;45.988;18.664;2023-02-11T13:13:16;102368.19;;;8.55;42.95
69772;BME280;57046;45.988;18.664;2023-02-11T13:16:04;102370.91;;;8.60;42.69
69772;BME280;57046;45.988;18.664;2023-02-11T13:18:39;102363.22;;;8.79;43.12
69772;BME280;57046;45.988;18.664;2023-02-11T13:27:08;102356.31;;;8.98;42.31
69772;BME280;57046;45.988;18.664;2023-02-11T13:32:09;102327.97;;;8.95;41.42
69772;BME280;57046;45.988;18.664;2023-02-11T13:37:31;102335.59;;;9.03;40.24
69772;BME280;57046;45.988;18.664;2023-02-11T13:40:09;102330.81;;;9.20;40.91
69772;BME280;57046;45.988;18.664;2023-02-11T13:42:52;102329.16;;;9.14;41.21
69772;BME280;57046;45.988;18.664;2023-02-11T13:47:57;102320.47;;;8.97;43.35
69772;BME280;57046;45.988;18.664;2023-02-11T13:50:24;102323.25;;;9.17;42.24
69772;BME280;57046;45.988;18.664;2023-02-11T13:53:01;102303.78;;;9.15;41.97
69772;BME280;57046;45.988;18.664;2023-02-11T13:55:28;102309.84;;;9.48;42.72
69772;BME280;57046;45.988;18.664;2023-02-11T14:05:35;102296.06;;;9.44;41.23
69772;BME280;57046;45.988;18.664;2023-02-11T14:08:14;102286.09;;;9.50;41.60
69772;BME280;57046;45.988;18.664;2023-02-11T14:13:35;102302.28;;;9.45;41.38
69772;BME280;57046;45.988;18.664;2023-02-11T14:16:08;102292.59;;;9.64;41.17
69772;BME280;57046;45.988;18.664;2023-02-11T14:23:35;102300.13;;;9.42;41.48
69772;BME280;57046;45.988;18.664;2023-02-11T14:37:02;102277.91;;;9.19;42.60
69772;BME280;57046;45.988;18.664;2023-02-11T14:42:16;102282.22;;;9.10;41.70
69772;BME280;57046;45.988;18.664;2023-02-11T14:44:44;102273.66;;;9.39;41.99
69772;BME280;57046;45.988;18.664;2023-02-11T14:47:17;102275.22;;;9.14;42.06
69772;BME280;57046;45.988;18.664;2023-02-11T14:49:44;102264.91;;;8.96;42.08
69772;BME280;57046;45.988;18.664;2023-02-11T14:52:28;102258.19;;;9.09;42.72
69772;BME280;57046;45.988;18.664;2023-02-11T14:57:26;102266.44;;;8.77;42.78
69772;BME280;57046;45.988;18.664;2023-02-11T14:59:59;102248.94;;;8.80;42.63
69772;BME280;57046;45.988;18.664;2023-02-11T15:02:30;102266.00;;;9.05;42.69
69772;BME280;57046;45.988;18.664;2023-02-11T15:07:47;102246.44;;;8.68;41.83
69772;BME280;57046;45.988;18.664;2023-02-11T15:10:25;102284.00;;;8.85;42.26
69772;BME280;57046;45.988;18.664;2023-02-11T15:12:51;102272.88;;;8.66;42.64
69772;BME280;57046;45.988;18.664;2023-02-11T15:15:17;102287.16;;;8.66;43.22
69772;BME280;57046;45.988;18.664;2023-02-11T15:17:43;102297.88;;;8.56;42.37
69772;BME280;57046;45.988;18.664;2023-02-11T15:20:19;102283.06;;;8.59;42.62
69772;BME280;57046;45.988;18.664;2023-02-11T15:22:46;102244.13;;;8.35;42.83